Time;durP1;ratioP1;P1;durP2;ratioP2;P2;SDS_P1;SDS_P2;PMS_P1;PMS_P2;Temp;Humidity;BMP_temperature;BMP_pressure;BME280_temperature;BME280_humidity;BME280_pressure;Samples;Min_cycle;Max_cycle;Signal;HPM_P1;HPM_P2
2023/01/19 00:01:29;;;;;;;12.90;2.72;;;-2.30;99.90;;;-2.51;100.00;98221.19;4914158;29;20321;-79
2023/01/19 00:03:56;;;;;;;17.52;3.63;;;-2.30;99.90;;;-2.52;100.00;98225.47;4916199;29;20255;-79
2023/01/19 00:06:24;;;;;;;18.42;4.18;;;-2.00;99.90;;;-2.54;100.00;98234.03;4913204;29;20594;-79
2023/01/19 00:08:51;;;;;;;23.92;4.72;;;-2.30;99.90;;;-2.52;100.00;98248.78;4913404;28;20245;-79
2023/01/19 00:11:18;;;;;;;13.23;2.67;;;-2.20;99.90;;;-2.56;100.00;98249.53;4917636;29;20235;-80
2023/01/19 00:13:49;;;;;;;14.07;2.88;;;-1.50;99.90;;;-2.65;100.00;98254.44;4916121;29;20223;-79
2023/01/19 00:16:18;;;;;;;24.83;4.70;;;-1.00;99.90;;;-2.66;100.00;98260.44;4913223;29;20238;-79
2023/01/19 00:18:45;;;;;;;12.27;2.55;;;-1.90;99.90;;;-2.63;100.00;98268.28;4918988;29;20325;-79
2023/01/19 00:21:16;;;;;;;13.93;2.88;;;-2.40;99.90;;;-2.68;100.00;98280.22;4918776;28;20231;-79
2023/01/19 00:23:46;;;;;;;16.58;3.30;;;-2.40;99.90;;;-2.67;100.00;98289.75;4913422;29;20323;-79
2023/01/19 00:26:16;;;;;;;16.67;3.28;;;-2.40;99.90;;;-2.63;100.00;98286.41;4922760;29;20274;-79
2023/01/19 00:28:44;;;;;;;28.20;5.35;;;-2.40;99.90;;;-2.68;100.00;98290.56;4912160;29;20250;-79
2023/01/19 00:31:11;;;;;;;23.48;4.53;;;-2.40;99.90;;;-2.67;100.00;98306.13;4914955;29;20274;-79
2023/01/19 00:33:38;;;;;;;16.30;3.17;;;-2.10;99.90;;;-2.66;100.00;98310.47;4911880;29;20242;-79
2023/01/19 00:36:06;;;;;;;17.98;3.70;;;-2.40;99.90;;;-2.71;100.00;98316.34;4914840;29;20257;-80
2023/01/19 00:38:33;;;;;;;12.20;2.60;;;-2.40;99.90;;;-2.62;100.00;98324.38;4913306;29;20235;-80
2023/01/19 00:41:00;;;;;;;21.33;4.43;;;-1.60;99.90;;;-2.52;100.00;98343.63;4913724;29;20233;-79
2023/01/19 00:43:27;;;;;;;20.67;4.05;;;-2.30;99.90;;;-2.52;100.00;98351.41;4911116;29;20239;-79
2023/01/19 00:45:54;;;;;;;19.33;3.90;;;-2.30;99.90;;;-2.45;100.00;98363.66;4913490;29;20330;-79
2023/01/19 00:48:21;;;;;;;16.27;3.40;;;-2.20;99.90;;;-2.43;100.00;98368.03;4911540;29;20262;-79
2023/01/19 00:50:49;;;;;;;21.92;4.22;;;-2.00;99.90;;;-2.47;100.00;98384.31;4909890;29;20930;-79
2023/01/19 00:53:16;;;;;;;17.40;3.80;;;-2.20;99.90;;;-2.32;100.00;98392.50;4912567;29;20299;-80
2023/01/19 00:55:43;;;;;;;18.10;3.67;;;-2.00;99.90;;;-2.37;100.00;98393.22;4914010;29;20273;-80
2023/01/19 00:58:10;;;;;;;18.05;3.53;;;-0.90;99.90;;;-2.37;100.00;98398.38;4912130;29;20251;-79
2023/01/19 01:00:37;;;;;;;19.15;3.78;;;-2.10;99.90;;;-2.37;100.00;98404.44;4910868;29;20235;-80
2023/01/19 01:03:04;;;;;;;18.58;3.88;;;-2.00;99.90;;;-2.32;100.00;98413.22;4913307;29;20235;-78
2023/01/19 01:05:31;;;;;;;15.52;3.13;;;-1.20;99.90;;;-2.29;100.00;98420.19;4911022;29;20257;-79
2023/01/19 01:07:58;;;;;;;21.30;5.05;;;-2.00;99.90;;;-2.26;100.00;98426.31;4911870;29;20254;-79
2023/01/19 01:10:28;;;;;;;20.55;4.03;;;-2.00;99.90;;;-2.13;100.00;98440.47;4910279;29;20238;-79
2023/01/19 01:12:55;;;;;;;15.57;3.35;;;-1.90;99.90;;;-2.15;100.00;98443.84;4913219;29;20239;-79
2023/01/19 01:15:27;;;;;;;15.93;3.22;;;-0.90;99.90;;;-2.20;100.00;98442.84;4911633;29;20688;-79
2023/01/19 01:17:54;;;;;;;24.75;4.90;;;-1.90;99.90;;;-2.23;100.00;98445.38;4908196;29;20250;-80
2023/01/19 01:20:26;;;;;;;18.80;3.70;;;-1.90;99.90;;;-2.19;100.00;98453.25;4909974;29;20316;-78
2023/01/19 01:22:55;;;;;;;18.10;3.60;;;-1.90;99.90;;;-2.17;100.00;98454.16;4907943;29;20711;-79
2023/01/19 01:25:24;;;;;;;20.52;3.97;;;-1.00;99.90;;;-2.19;100.00;98463.59;4907943;29;20245;-79
2023/01/19 01:27:53;;;;;;;13.07;2.80;;;-1.90;99.90;;;-2.11;100.00;98464.69;4909884;29;20231;-78
2023/01/19 01:30:20;;;;;;;18.88;3.70;;;-1.80;99.90;;;-2.13;100.00;98463.78;4909093;29;20247;-79
2023/01/19 01:32:48;;;;;;;24.38;4.70;;;-0.90;99.90;;;-2.19;100.00;98466.19;4926735;29;20239;-80
2023/01/19 01:35:16;;;;;;;21.27;4.10;;;-1.90;99.90;;;-2.20;100.00;98471.34;4912031;29;20286;-79
2023/01/19 01:37:43;;;;;;;15.18;3.05;;;-0.70;99.90;;;-2.27;100.00;98468.56;4910219;29;20235;-79
2023/01/19 01:40:16;;;;;;;23.98;4.68;;;-1.50;99.90;;;-2.31;100.00;98468.44;4916461;28;20281;-79
2023/01/19 01:42:44;;;;;;;11.65;2.45;;;-2.00;99.90;;;-2.31;100.00;98476.22;4911575;29;20287;-79
2023/01/19 01:45:35;;;;;;;11.77;2.50;;;-2.00;99.90;;;-2.41;100.00;98466.44;4912840;29;20231;-80
2023/01/19 01:48:21;;;;;;;21.35;4.43;;;-2.10;99.90;;;-2.39;100.00;98470.81;4909764;29;20235;-80
2023/01/19 01:51:25;;;;;;;18.38;3.72;;;-2.10;99.90;;;-2.43;100.00;98481.91;4908946;29;20294;-79
2023/01/19 01:54:01;;;;;;;24.88;4.85;;;-2.20;99.90;;;-2.41;100.00;98481.97;4914860;29;20241;-79
2023/01/19 01:56:44;;;;;;;20.10;3.97;;;-2.10;99.90;;;-2.44;100.00;98487.94;4914421;29;20251;-79
2023/01/19 01:59:28;;;;;;;16.35;3.97;;;-2.10;99.90;;;-2.55;100.00;98491.91;4912285;29;20230;-79
2023/01/19 02:04:51;;;;;;;15.23;3.13;;;-2.20;99.90;;;-2.47;100.00;98503.38;4915814;29;20231;-79
2023/01/19 02:13:22;;;;;;;15.88;3.47;;;-2.10;99.90;;;-2.27;100.00;98532.41;4918092;29;20227;-79
2023/01/19 02:15:57;;;;;;;16.50;3.30;;;-2.10;99.90;;;-2.21;100.00;98537.78;4918158;29;20238;-79
2023/01/19 02:18:29;;;;;;;14.63;3.00;;;-1.00;99.90;;;-2.18;100.00;98545.63;4918121;29;20302;-80
2023/01/19 02:21:25;;;;;;;16.73;3.50;;;-1.90;99.90;;;-2.15;100.00;98547.44;4904763;29;20298;-80
2023/01/19 02:23:54;;;;;;;20.38;4.10;;;-1.90;99.90;;;-2.16;100.00;98545.66;4928766;29;20279;-81
2023/01/19 02:26:32;;;;;;;20.58;4.18;;;-1.90;99.90;;;-2.09;100.00;98552.78;4915184;29;20286;-80
2023/01/19 02:29:04;;;;;;;20.88;4.35;;;-1.80;99.90;;;-2.18;100.00;98550.81;4913291;29;20258;-81
2023/01/19 02:31:33;;;;;;;24.13;4.75;;;-1.90;99.90;;;-2.22;100.00;98550.66;4913865;29;20235;-80
2023/01/19 02:34:02;;;;;;;38.22;7.75;;;-1.60;99.90;;;-2.20;100.00;98554.19;4904642;29;20307;-81
2023/01/19 02:37:10;;;;;;;12.32;2.50;;;-1.90;99.90;;;-2.12;100.00;98573.41;4928740;29;20253;-80
2023/01/19 02:39:57;;;;;;;14.63;2.95;;;-1.80;99.90;;;-2.10;100.00;98566.56;4915108;29;20259;-80
2023/01/19 02:42:28;;;;;;;17.17;3.47;;;-1.90;99.90;;;-2.17;100.00;98569.81;4914919;29;20290;-80
2023/01/19 02:44:56;;;;;;;30.10;6.10;;;-1.90;99.90;;;-2.22;100.00;98563.63;4915065;28;20236;-80
2023/01/19 02:47:24;;;;;;;14.10;2.90;;;-1.90;99.90;;;-2.26;100.00;98568.72;4918876;29;20286;-81
2023/01/19 02:49:59;;;;;;;15.50;3.22;;;-2.00;99.90;;;-2.21;100.00;98581.78;4913818;28;20307;-80
2023/01/19 02:52:26;;;;;;;14.38;2.95;;;-1.90;99.90;;;-2.27;100.00;98581.59;4916819;29;20626;-80
2023/01/19 02:55:21;;;;;;;24.42;4.82;;;-2.00;99.90;;;-2.22;100.00;98595.56;4914076;29;20242;-79
2023/01/19 02:58:10;;;;;;;13.88;2.83;;;-2.00;99.90;;;-2.17;100.00;98606.94;4932568;29;20227;-80
2023/01/19 03:00:52;;;;;;;17.40;3.47;;;-1.90;99.90;;;-2.24;100.00;98598.94;4913160;29;20282;-81
2023/01/19 03:03:32;;;;;;;19.20;3.83;;;-1.90;99.90;;;-2.22;100.00;98605.91;4913647;29;20324;-80
2023/01/19 03:06:35;;;;;;;17.92;3.83;;;-2.00;99.90;;;-2.31;100.00;98603.94;4912312;29;20246;-80
2023/01/19 03:09:37;;;;;;;22.45;4.43;;;-2.00;99.90;;;-2.35;100.00;98591.72;4929808;29;20234;-79
2023/01/19 03:12:35;;;;;;;19.30;4.03;;;-2.10;99.90;;;-2.36;100.00;98596.84;4916634;29;20255;-80
2023/01/19 03:15:17;;;;;;;26.40;5.25;;;-2.10;99.90;;;-2.34;100.00;98596.06;4929042;29;20235;-80
2023/01/19 03:17:48;;;;;;;20.05;3.90;;;-2.50;99.90;;;-2.32;100.00;98604.75;4906182;29;20227;-79
2023/01/19 03:20:20;;;;;;;23.80;4.65;;;-2.10;99.90;;;-2.20;100.00;98624.09;4907512;29;20326;-81
2023/01/19 03:22:56;;;;;;;37.83;7.10;;;-2.00;99.90;;;-2.21;100.00;98622.34;4907100;29;20257;-80
2023/01/19 03:25:24;;;;;;;29.13;5.65;;;-1.90;99.90;;;-2.18;100.00;98630.19;4904959;29;20238;-79
2023/01/19 03:27:56;;;;;;;33.80;6.43;;;-2.00;99.90;;;-2.06;100.00;98646.09;4920105;29;20286;-80
2023/01/19 03:30:32;;;;;;;28.45;5.47;;;-1.90;99.90;;;-2.14;100.00;98647.56;4905440;29;20259;-80
2023/01/19 03:33:08;;;;;;;20.10;4.28;;;-1.90;99.90;;;-2.20;100.00;98644.81;4921948;29;20233;-80
2023/01/19 03:35:43;;;;;;;13.35;2.83;;;-1.90;99.90;;;-2.28;100.00;98640.28;4909079;29;20235;-80
2023/01/19 03:38:17;;;;;;;16.75;3.35;;;-2.00;99.90;;;-2.19;100.00;98650.03;4916319;29;20254;-81
2023/01/19 03:40:46;;;;;;;18.17;3.60;;;-2.00;99.90;;;-2.24;100.00;98643.81;4912952;29;20274;-80
2023/01/19 03:43:16;;;;;;;15.27;3.13;;;-1.90;99.90;;;-2.27;100.00;98647.19;4916725;29;20262;-80
2023/01/19 03:45:44;;;;;;;19.05;3.80;;;-2.00;99.90;;;-2.26;100.00;98645.50;4931482;29;20247;-80
2023/01/19 03:48:11;;;;;;;23.92;4.68;;;-2.00;99.90;;;-2.34;100.00;98644.38;4915802;29;20238;-80
2023/01/19 03:50:39;;;;;;;20.42;3.97;;;-1.20;99.90;;;-2.39;100.00;98644.22;4914268;29;20231;-80
2023/01/19 03:53:14;;;;;;;20.27;4.03;;;-2.10;99.90;;;-2.47;100.00;98642.25;4909196;29;20234;-80
2023/01/19 03:55:44;;;;;;;22.40;4.50;;;-2.20;99.90;;;-2.60;100.00;98652.19;4911779;29;20230;-82
2023/01/19 03:58:12;;;;;;;26.13;5.05;;;-2.30;99.90;;;-2.51;100.00;98661.97;4909799;28;20357;-80
2023/01/19 04:00:39;;;;;;;33.70;6.43;;;-1.50;99.90;;;-2.48;100.00;98669.81;4910436;29;20243;-79
2023/01/19 04:03:14;;;;;;;22.55;4.60;;;-2.30;99.90;;;-2.49;100.00;98678.41;4927083;29;20286;-80
2023/01/19 04:05:43;;;;;;;23.08;4.55;;;-2.20;99.90;;;-2.41;100.00;98683.84;4909209;29;20256;-79
2023/01/19 04:08:11;;;;;;;14.20;3.42;;;-2.20;99.90;;;-2.38;100.00;98691.69;4917117;29;20223;-80
2023/01/19 04:10:38;;;;;;;19.15;3.78;;;-1.80;99.90;;;-2.36;100.00;98711.63;4914711;29;20232;-80
2023/01/19 04:13:05;;;;;;;15.85;3.35;;;-2.10;99.90;;;-2.44;100.00;98707.03;4921665;29;20283;-79
2023/01/19 04:15:33;;;;;;;10.60;2.25;;;-2.20;99.90;;;-2.51;100.00;98702.50;4918919;29;20267;-80
2023/01/19 04:18:00;;;;;;;16.98;3.50;;;-2.30;99.90;;;-2.47;100.00;98714.69;4919223;29;20243;-80
2023/01/19 04:20:28;;;;;;;17.13;3.47;;;-2.20;99.90;;;-2.43;100.00;98716.56;4915446;29;20339;-80
2023/01/19 04:22:59;;;;;;;16.35;3.50;;;-1.80;99.90;;;-2.37;100.00;98730.59;4915134;29;20231;-80
2023/01/19 04:25:28;;;;;;;11.57;2.53;;;-2.10;99.90;;;-2.46;100.00;98730.28;4917874;29;20235;-80
2023/01/19 04:27:57;;;;;;;13.23;2.90;;;-2.20;99.90;;;-2.53;100.00;98723.16;4925577;28;20715;-81
2023/01/19 04:30:25;;;;;;;20.95;4.18;;;-2.20;99.90;;;-2.43;100.00;98729.50;4905979;29;20235;-80
2023/01/19 04:32:54;;;;;;;18.15;3.60;;;-2.20;99.90;;;-2.33;100.00;98735.03;4926627;29;20227;-81
2023/01/19 04:35:22;;;;;;;11.38;2.50;;;-2.10;99.90;;;-2.42;100.00;98732.13;4918074;28;20239;-81
2023/01/19 04:37:49;;;;;;;13.18;2.72;;;-2.20;99.90;;;-2.39;100.00;98727.06;4901867;29;20679;-81
2023/01/19 04:40:17;;;;;;;8.90;1.95;;;-2.10;99.90;;;-2.41;100.00;98730.44;4908548;29;20235;-80
2023/01/19 04:42:45;;;;;;;13.50;2.78;;;-1.50;99.90;;;-2.45;100.00;98724.28;4914497;29;20282;-80
2023/01/19 04:45:13;;;;;;;12.30;2.58;;;-2.20;99.90;;;-2.44;100.00;98726.03;4924559;28;20314;-80
2023/01/19 04:47:41;;;;;;;12.98;3.10;;;-2.20;99.90;;;-2.39;100.00;98729.66;4915235;29;20245;-80
2023/01/19 04:50:10;;;;;;;12.10;2.50;;;-2.20;99.90;;;-2.42;100.00;98720.91;4904679;29;20244;-80
2023/01/19 04:52:37;;;;;;;10.93;2.38;;;-2.20;99.90;;;-2.48;100.00;98720.72;4916848;29;20237;-81
2023/01/19 04:55:06;;;;;;;11.95;2.67;;;-2.30;99.90;;;-2.46;100.00;98717.34;4903877;29;20290;-81
2023/01/19 04:57:33;;;;;;;11.68;2.42;;;-2.20;99.90;;;-2.68;100.00;98712.25;4917283;29;20242;-81
2023/01/19 05:00:01;;;;;;;13.93;3.03;;;-2.40;99.90;;;-2.65;100.00;98717.53;4917529;29;20234;-80
2023/01/19 05:02:28;;;;;;;8.63;1.90;;;-2.40;99.90;;;-2.47;100.00;98732.81;4918865;29;20231;-80
2023/01/19 05:04:56;;;;;;;19.33;3.97;;;-2.30;99.90;;;-2.55;100.00;98737.75;4907068;29;20242;-81
2023/01/19 05:07:23;;;;;;;15.65;3.20;;;-2.30;99.90;;;-2.58;100.00;98730.75;4906144;29;20242;-80
2023/01/19 05:09:52;;;;;;;21.92;4.13;;;-2.30;99.90;;;-2.60;100.00;98737.59;4908806;29;20247;-80
2023/01/19 05:12:20;;;;;;;14.38;2.97;;;-2.40;99.90;;;-2.41;100.00;98757.19;4911281;29;20234;-81
2023/01/19 05:14:47;;;;;;;21.23;4.13;;;-1.40;99.90;;;-2.44;100.00;98757.09;4913181;29;20261;-81
2023/01/19 05:17:14;;;;;;;14.02;2.80;;;-1.40;99.90;;;-2.39;100.00;98749.47;4899128;29;20253;-80
2023/01/19 05:19:41;;;;;;;15.73;3.08;;;-2.20;99.90;;;-2.30;100.00;98753.25;4914887;29;20334;-81
2023/01/19 05:22:08;;;;;;;12.10;2.55;;;-0.90;99.90;;;-2.23;100.00;98758.63;4912081;29;20326;-80
2023/01/19 05:24:35;;;;;;;21.73;4.22;;;-1.10;99.90;;;-2.23;100.00;98764.69;4915998;29;20235;-80
2023/01/19 05:27:13;;;;;;;14.55;2.90;;;-1.00;99.90;;;-2.16;100.00;98769.22;4915811;29;20246;-80
2023/01/19 05:29:40;;;;;;;12.65;2.53;;;-1.40;99.90;;;-2.17;100.00;98770.06;4914064;29;20310;-80
2023/01/19 05:32:07;;;;;;;22.38;4.30;;;-0.90;99.90;;;-2.13;100.00;98774.50;4907821;29;20235;-80
2023/01/19 05:34:34;;;;;;;18.45;3.63;;;-0.80;99.90;;;-2.17;100.00;98784.72;4919574;29;20235;-78
2023/01/19 05:37:01;;;;;;;14.18;3.00;;;-1.20;99.90;;;-2.15;100.00;98783.94;4914221;29;20235;-78
2023/01/19 05:39:29;;;;;;;19.60;3.85;;;-1.90;99.90;;;-2.19;100.00;98781.19;4913653;29;20607;-78
2023/01/19 05:41:56;;;;;;;13.48;2.85;;;-2.00;99.90;;;-2.29;100.00;98772.25;4912662;29;20235;-79
2023/01/19 05:44:23;;;;;;;25.20;4.85;;;-2.00;99.90;;;-2.33;100.00;98772.97;4903035;29;20299;-79
2023/01/19 05:46:50;;;;;;;12.90;2.67;;;-2.10;99.90;;;-2.29;100.00;98764.47;4914138;29;20254;-79
2023/01/19 05:49:17;;;;;;;13.18;2.67;;;-2.10;99.90;;;-2.30;100.00;98775.66;4904757;29;20322;-79
2023/01/19 05:51:46;;;;;;;14.63;3.03;;;-1.50;99.90;;;-2.23;100.00;98768.97;4913280;29;20258;-79
2023/01/19 05:54:14;;;;;;;17.48;3.47;;;-1.30;99.90;;;-2.17;100.00;98772.66;4922307;29;20234;-79
2023/01/19 05:56:41;;;;;;;14.85;3.00;;;-1.90;99.90;;;-2.06;100.00;98783.34;4909659;29;20330;-79
2023/01/19 05:59:09;;;;;;;13.35;2.70;;;-1.80;99.90;;;-2.07;100.00;98790.25;4911815;29;20241;-79
2023/01/19 06:01:37;;;;;;;12.30;2.53;;;-1.80;99.90;;;-2.01;100.00;98789.56;4910106;29;20234;-79
2023/01/19 06:04:06;;;;;;;15.13;3.15;;;-1.80;99.90;;;-1.99;100.00;98787.91;4918728;28;20607;-79
2023/01/19 06:06:33;;;;;;;12.60;2.63;;;-1.70;99.90;;;-1.88;100.00;98796.91;4914075;29;20317;-79
2023/01/19 06:09:00;;;;;;;15.50;3.60;;;-1.40;99.90;;;-1.82;100.00;98791.03;4916404;29;20259;-79
2023/01/19 06:11:27;;;;;;;9.35;2.00;;;-1.60;99.90;;;-1.80;100.00;98790.25;4915479;29;20305;-79
2023/01/19 06:13:54;;;;;;;12.57;2.80;;;-0.80;99.90;;;-1.83;100.00;98790.16;4916013;29;20298;-79
2023/01/19 06:16:21;;;;;;;13.27;2.67;;;-1.60;99.90;;;-1.81;100.00;98797.97;4910386;29;20235;-79
2023/01/19 06:18:48;;;;;;;9.05;1.95;;;-1.60;99.90;;;-1.87;100.00;98800.34;4911981;29;20246;-79
2023/01/19 06:21:15;;;;;;;13.77;2.83;;;-1.60;99.90;;;-1.79;100.00;98798.88;4929678;29;20317;-79
2023/01/19 06:23:42;;;;;;;9.85;2.10;;;-1.10;99.90;;;-1.75;100.00;98809.41;4916055;29;20266;-79
2023/01/19 06:26:09;;;;;;;11.60;2.53;;;-0.90;99.90;;;-1.77;100.00;98811.06;4913598;29;20258;-81
2023/01/19 06:28:36;;;;;;;11.50;2.47;;;-0.60;99.90;;;-1.67;100.00;98817.41;4911546;29;20278;-80
2023/01/19 06:31:04;;;;;;;13.77;3.00;;;-1.50;99.90;;;-1.69;100.00;98822.56;4910812;29;20244;-78
2023/01/19 06:33:31;;;;;;;17.17;3.47;;;-1.40;99.90;;;-1.68;100.00;98823.44;4904396;29;20234;-79
2023/01/19 06:35:58;;;;;;;15.32;3.35;;;-1.40;99.90;;;-1.60;100.00;98827.13;4904452;29;20305;-79
2023/01/19 06:38:26;;;;;;;13.88;2.83;;;-1.40;99.90;;;-1.57;100.00;98829.81;4910540;29;20235;-79
2023/01/19 06:40:57;;;;;;;12.18;2.67;;;-1.30;99.90;;;-1.47;100.00;98839.66;4914185;29;20231;-79
2023/01/19 06:43:25;;;;;;;16.10;3.25;;;-1.30;99.90;;;-1.41;100.00;98845.00;4904654;29;20262;-79
2023/01/19 06:45:53;;;;;;;31.58;6.03;;;-1.20;99.90;;;-1.39;100.00;98856.31;4916674;29;20238;-78
2023/01/19 06:48:20;;;;;;;19.05;3.75;;;-1.10;99.90;;;-1.38;100.00;98855.47;4919142;29;20231;-78
2023/01/19 06:50:48;;;;;;;15.90;3.20;;;-0.40;99.90;;;-1.37;100.00;98859.84;4919224;29;20230;-78
2023/01/19 06:53:16;;;;;;;14.43;2.90;;;-1.10;99.90;;;-1.33;100.00;98863.41;4903797;29;20235;-78
2023/01/19 06:55:43;;;;;;;13.43;2.72;;;-1.10;99.90;;;-1.27;100.00;98870.53;4914971;29;20251;-79
2023/01/19 06:58:11;;;;;;;12.93;2.72;;;-0.80;99.90;;;-1.25;100.00;98879.22;4934577;29;20278;-78
2023/01/19 07:00:38;;;;;;;9.98;2.08;;;-1.00;99.90;;;-1.24;100.00;98884.47;4917678;29;20367;-78
2023/01/19 07:03:06;;;;;;;13.65;3.38;;;-1.00;99.90;;;-1.20;100.00;98886.31;4917739;29;20223;-78
2023/01/19 07:05:35;;;;;;;11.93;2.45;;;-0.20;99.90;;;-1.14;100.00;98896.00;4915083;29;20267;-79
2023/01/19 07:08:03;;;;;;;11.90;2.60;;;-0.90;99.90;;;-1.13;100.00;98898.63;4902127;29;20261;-78
2023/01/19 07:10:30;;;;;;;13.32;2.75;;;-0.90;99.90;;;-1.10;100.00;98898.72;4906345;29;20239;-78
2023/01/19 07:13:17;;;;;;;9.98;2.17;;;-0.80;99.90;;;-1.03;100.00;98916.25;4918649;29;20235;-78
2023/01/19 07:15:44;;;;;;;11.65;2.40;;;-0.80;99.90;;;-1.05;100.00;98917.03;4912950;29;20235;-78
2023/01/19 07:18:11;;;;;;;13.45;2.80;;;-0.80;99.90;;;-1.02;100.00;98914.53;4915079;29;20318;-78
2023/01/19 07:20:38;;;;;;;8.43;1.88;;;-0.80;99.90;;;-0.97;100.00;98915.53;4917846;29;20262;-79
2023/01/19 07:23:05;;;;;;;13.13;2.85;;;-0.70;99.90;;;-1.00;100.00;98918.94;4914357;29;20254;-78
2023/01/19 07:25:32;;;;;;;13.05;2.65;;;-0.80;99.90;;;-1.03;100.00;98918.84;4917063;29;20298;-78
2023/01/19 07:28:00;;;;;;;12.35;2.78;;;-0.80;99.90;;;-0.96;100.00;98927.69;4931147;29;20269;-78
2023/01/19 07:30:27;;;;;;;11.05;2.30;;;0.20;99.90;;;-0.99;100.00;98938.84;4917667;29;20238;-79
2023/01/19 07:32:56;;;;;;;13.95;2.85;;;-0.70;99.90;;;-0.91;100.00;98940.78;4912901;29;20763;-79
2023/01/19 07:35:24;;;;;;;10.23;2.15;;;-0.30;99.90;;;-0.87;100.00;98953.03;4904755;29;20235;-78
2023/01/19 07:37:52;;;;;;;10.68;2.30;;;0.30;99.90;;;-0.86;100.00;98955.66;4912344;29;20238;-78
2023/01/19 07:40:19;;;;;;;10.05;2.30;;;-0.60;99.90;;;-0.85;100.00;98967.81;4916963;29;20235;-78
2023/01/19 07:42:49;;;;;;;11.43;2.42;;;-0.60;99.90;;;-0.83;100.00;98976.53;4916155;29;20322;-78
2023/01/19 07:45:19;;;;;;;9.85;2.10;;;-0.60;99.90;;;-0.81;100.00;98987.84;4895559;29;20323;-78
2023/01/19 07:47:48;;;;;;;9.38;2.00;;;-0.60;99.90;;;-0.78;100.00;98984.44;4913591;29;20329;-78
2023/01/19 07:50:20;;;;;;;16.27;3.25;;;0.40;99.90;;;-0.73;100.00;99001.03;4907633;29;20281;-78
2023/01/19 07:52:52;;;;;;;9.77;2.10;;;-0.50;99.90;;;-0.71;100.00;99000.25;4916983;29;20242;-78
2023/01/19 07:55:20;;;;;;;13.50;2.85;;;-0.50;99.90;;;-0.71;100.00;99005.44;4914547;29;20261;-78
2023/01/19 07:57:52;;;;;;;9.93;2.10;;;-0.30;99.90;;;-0.69;100.00;99015.88;4917020;29;20258;-79
2023/01/19 08:00:20;;;;;;;11.32;2.38;;;-0.50;99.90;;;-0.66;100.00;99024.63;4908071;29;20259;-77
2023/01/19 08:02:51;;;;;;;10.32;2.20;;;-0.40;99.90;;;-0.60;100.00;99034.34;4916888;29;20231;-79
2023/01/19 08:05:19;;;;;;;11.73;2.45;;;0.40;99.90;;;-0.58;100.00;99035.25;4916643;29;20234;-79
2023/01/19 08:07:47;;;;;;;10.32;2.22;;;-0.40;99.90;;;-0.59;100.00;99032.63;4914401;29;20250;-78
2023/01/19 08:10:15;;;;;;;9.63;2.08;;;-0.40;99.90;;;-0.54;100.00;99046.63;4913416;29;20306;-78
2023/01/19 08:12:42;;;;;;;14.05;2.88;;;-0.30;99.90;;;-0.57;100.00;99046.53;4914011;29;20238;-77
2023/01/19 08:15:10;;;;;;;10.80;2.28;;;0.40;99.90;;;-0.56;100.00;99045.69;4913574;29;20318;-77
2023/01/19 08:17:37;;;;;;;12.68;2.58;;;-0.30;99.90;;;-0.52;100.00;99056.22;4915147;29;20231;-78
2023/01/19 08:20:06;;;;;;;11.38;2.53;;;0.60;99.90;;;-0.48;100.00;99057.19;4914739;29;20337;-78
2023/01/19 08:22:34;;;;;;;9.40;2.10;;;-0.30;99.90;;;-0.45;100.00;99067.66;4915459;29;20232;-78
2023/01/19 08:25:01;;;;;;;13.15;2.75;;;-0.20;99.90;;;-0.44;100.00;99065.13;4907324;29;20235;-78
2023/01/19 08:27:28;;;;;;;9.80;2.08;;;-0.20;99.90;;;-0.36;100.00;99075.75;4915917;29;20234;-78
2023/01/19 08:29:57;;;;;;;12.75;2.78;;;-0.20;99.90;;;-0.37;100.00;99071.38;4915820;29;20230;-78
2023/01/19 08:32:24;;;;;;;12.80;2.65;;;-0.10;99.90;;;-0.32;100.00;99080.19;4911241;29;20259;-78
2023/01/19 08:34:51;;;;;;;12.18;2.58;;;-0.10;99.90;;;-0.32;100.00;99088.88;4911507;29;20267;-78
2023/01/19 08:37:18;;;;;;;19.35;3.88;;;-0.10;99.90;;;-0.30;100.00;99088.03;4913474;29;20285;-78
2023/01/19 08:39:45;;;;;;;10.10;2.15;;;-0.10;99.90;;;-0.26;100.00;99095.97;4914742;29;20231;-78
2023/01/19 08:42:12;;;;;;;13.32;2.75;;;0.30;99.90;;;-0.24;100.00;99096.88;4917895;29;20231;-78
2023/01/19 08:44:40;;;;;;;12.80;3.20;;;0.80;99.90;;;-0.19;100.00;99103.09;4912797;29;20704;-77
2023/01/19 08:47:22;;;;;;;11.02;2.35;;;0.00;99.90;;;-0.17;100.00;99117.03;4911349;29;20289;-78
2023/01/19 08:49:49;;;;;;;11.18;2.35;;;0.50;99.90;;;-0.15;100.00;99112.75;4916478;29;20310;-78
2023/01/19 08:52:16;;;;;;;11.18;2.38;;;0.20;99.90;;;-0.15;100.00;99123.16;4918260;29;20298;-78
2023/01/19 08:54:43;;;;;;;12.25;2.60;;;1.20;99.90;;;-0.13;100.00;99118.88;4917565;29;20258;-78
2023/01/19 08:57:10;;;;;;;10.13;2.20;;;0.10;99.90;;;-0.11;100.00;99125.00;4917935;29;20231;-78
2023/01/19 08:59:37;;;;;;;13.50;2.80;;;0.10;99.90;;;-0.11;100.00;99132.81;4931194;29;20255;-78
2023/01/19 09:02:04;;;;;;;10.57;2.50;;;0.10;99.90;;;-0.08;100.00;99134.59;4917258;29;20266;-78
2023/01/19 09:04:33;;;;;;;21.27;4.10;;;0.20;99.90;;;-0.06;100.00;99143.34;4910483;29;20266;-78
2023/01/19 09:07:00;;;;;;;12.95;2.88;;;0.30;99.90;;;-0.05;100.00;99139.91;4913570;29;20239;-79
2023/01/19 09:09:27;;;;;;;9.55;2.08;;;0.10;99.90;;;-0.09;100.00;99140.63;4916668;29;20243;-78
2023/01/19 09:11:54;;;;;;;14.57;3.17;;;0.10;99.90;;;-0.11;100.00;99142.31;4915841;29;20700;-78
2023/01/19 09:14:21;;;;;;;16.17;3.33;;;1.30;99.90;;;-0.13;100.00;99147.47;4916945;29;20294;-78
2023/01/19 09:16:48;;;;;;;10.15;2.20;;;0.10;99.90;;;-0.09;100.00;99151.03;4915164;29;20246;-78
2023/01/19 09:19:15;;;;;;;11.48;2.40;;;0.30;99.90;;;-0.05;100.00;99156.38;4916877;29;20257;-78
2023/01/19 09:21:43;;;;;;;12.70;3.50;;;0.10;99.90;;;0.04;100.00;99163.59;4909891;29;20251;-78
2023/01/19 09:24:11;;;;;;;12.20;2.53;;;0.20;99.90;;;0.12;100.00;99179.44;4921284;29;20258;-78
2023/01/19 09:26:39;;;;;;;9.13;2.03;;;0.30;99.90;;;0.19;100.00;99181.38;4911482;29;20247;-78
2023/01/19 09:29:06;;;;;;;14.75;4.22;;;1.00;99.90;;;0.21;100.00;99187.50;4909998;29;20228;-78
2023/01/19 09:31:33;;;;;;;14.73;2.95;;;0.40;99.90;;;0.27;100.00;99192.88;4914930;29;20334;-78
2023/01/19 09:34:00;;;;;;;13.73;2.97;;;0.40;99.90;;;0.35;100.00;99195.72;4914071;29;20235;-78
2023/01/19 09:36:27;;;;;;;12.45;2.58;;;1.30;99.90;;;0.37;100.00;99199.22;4907616;29;20324;-78
2023/01/19 09:38:54;;;;;;;15.85;3.38;;;0.50;99.90;;;0.41;100.00;99212.38;4916049;29;20270;-78
2023/01/19 09:41:22;;;;;;;13.10;2.65;;;0.60;99.90;;;0.48;100.00;99206.50;4915768;29;20238;-78
2023/01/19 09:43:59;;;;;;;11.85;2.50;;;0.60;99.90;;;0.60;100.00;99217.28;4927758;29;20700;-78
2023/01/19 09:46:34;;;;;;;11.40;2.40;;;0.80;99.90;;;0.40;100.00;99220.13;4916416;29;20242;-78
2023/01/19 09:49:10;;;;;;;14.60;3.13;;;0.60;99.90;;;0.34;100.00;99215.63;4899994;29;20243;-77
2023/01/19 09:51:44;;;;;;;12.00;2.47;;;0.60;99.90;;;0.25;100.00;99216.22;4912162;29;20255;-79
2023/01/19 09:54:25;;;;;;;29.33;5.63;;;0.50;99.90;;;0.28;100.00;99215.44;4903244;29;20231;-77
2023/01/19 09:56:53;;;;;;;13.52;2.95;;;0.50;99.90;;;0.36;100.00;99221.75;4910916;29;20242;-78
2023/01/19 09:59:24;;;;;;;8.90;1.90;;;1.40;99.90;;;0.57;100.00;99232.78;4913854;29;20227;-78
2023/01/19 10:02:24;;;;;;;16.48;3.35;;;0.60;99.90;;;0.61;100.00;99232.03;4914524;29;20231;-78
2023/01/19 10:05:19;;;;;;;9.63;2.10;;;0.80;99.90;;;0.64;100.00;99236.44;4911396;29;20244;-78
2023/01/19 10:08:17;;;;;;;10.75;2.30;;;0.80;99.90;;;0.83;100.00;99256.97;4914542;29;20239;-78
2023/01/19 10:10:54;;;;;;;12.73;2.70;;;1.00;99.90;;;0.77;100.00;99248.97;4905499;29;20235;-77
2023/01/19 10:13:33;;;;;;;10.82;2.30;;;1.00;99.90;;;0.89;100.00;99259.75;4913654;29;20294;-78
2023/01/19 10:16:14;;;;;;;16.83;3.55;;;1.00;99.90;;;0.92;100.00;99259.81;4913475;29;20308;-78
2023/01/19 10:18:50;;;;;;;11.05;2.40;;;1.40;99.90;;;1.05;100.00;99270.59;4914173;29;20230;-78
2023/01/19 10:21:26;;;;;;;12.30;2.60;;;1.20;99.90;;;1.14;100.00;99278.66;4913559;29;20238;-77
2023/01/19 10:24:05;;;;;;;10.38;2.40;;;1.70;99.90;;;1.04;100.00;99266.22;4910541;29;20259;-78
2023/01/19 10:26:43;;;;;;;12.23;3.17;;;1.20;99.90;;;1.10;100.00;99272.47;4927926;29;20739;-78
2023/01/19 10:29:21;;;;;;;13.07;2.72;;;1.30;99.90;;;1.08;100.00;99270.66;4905196;29;20241;-78
2023/01/19 10:31:52;;;;;;;14.65;2.95;;;1.30;99.90;;;0.96;100.00;99264.28;4913293;29;20337;-78